Terminal Aerodrome Forecast
Issued by NWS Memphis, TN

Home | Current Version | Previous Version | Text Only | Print | Product List | Glossary On
Versions: 1 2 3 4 5 6 7 8 9 10 11 12
000
FTUS44 KMEG 281132
TAFMKL
TAF
KMKL 281132Z 2812/2912 00000KT P6SM SCT250
     FM281400 17006KT P6SM SCT060 SCT250
     FM290000 18004KT P6SM SKC
     FM291000 18004KT P6SM BKN035=

USA.gov is the U.S. government's official web portal to all federal, state and local government web resources and services.